KHRT

Hurlburt Field Airport

Mary Esther, Florida, USA
METAR KHRT 170156Z 16004KT 10SM CLR 26/25 A3008 RMK AO2A SLP188 T02630251 $
Observed Flight Rules
Oct-17 @ 01:56 UTC (an hour ago) Visual Flight Rules
Wind Visibility Clouds
160° at 4 knots 10 miles
  • Clear skies
Temperatures Readings
Current 26°C / 79°F
Dewpoint 25°C / 77°F
Humidity 94%
Altimeter 30.08" Hg
Pressure 1018.8 hPa
Elevation 12
METAR KHRT 170156Z 16004KT 10SM CLR 26/25 A3008 RMK AO2A SLP188 T02630251 $
Observed Flight Rules
Oct-17 @ 01:56 UTC
(an hour ago)
VFR
Wind Visibility
160° at 4 knots 10 miles
Clouds
  • Clear skies
Temperature Dewpoint
26°C / 79°F 25°C / 77°F
Humidity Altimeter Pressure
94% 30.08" Hg 1018.8 hPa